sensor_id;sensor_type;location;lat;lon;timestamp;pressure;altitude;pressure_sealevel;temperature;humidity
57376;BME280;44805;45.048;5.062;2023-04-26T00:01:40;99679.47;;;10.65;54.53
57376;BME280;44805;45.048;5.062;2023-04-26T00:04:06;99679.84;;;10.71;54.07
57376;BME280;44805;45.048;5.062;2023-04-26T00:06:32;99674.94;;;10.76;54.34
57376;BME280;44805;45.048;5.062;2023-04-26T00:08:58;99674.13;;;10.93;54.05
57376;BME280;44805;45.048;5.062;2023-04-26T00:11:24;99685.75;;;11.08;53.52
57376;BME280;44805;45.048;5.062;2023-04-26T00:13:49;99687.34;;;11.01;53.39
57376;BME280;44805;45.048;5.062;2023-04-26T00:16:14;99687.03;;;11.22;52.72
57376;BME280;44805;45.048;5.062;2023-04-26T00:18:40;99698.75;;;11.28;52.92
57376;BME280;44805;45.048;5.062;2023-04-26T00:21:05;99691.63;;;11.20;53.03
57376;BME280;44805;45.048;5.062;2023-04-26T00:23:31;99693.91;;;11.15;52.98
57376;BME280;44805;45.048;5.062;2023-04-26T00:25:56;99698.34;;;11.15;52.75
57376;BME280;44805;45.048;5.062;2023-04-26T00:28:21;99695.91;;;11.21;52.75
57376;BME280;44805;45.048;5.062;2023-04-26T00:30:47;99696.34;;;11.17;52.34
57376;BME280;44805;45.048;5.062;2023-04-26T00:33:13;99691.41;;;11.14;52.58
57376;BME280;44805;45.048;5.062;2023-04-26T00:35:38;99698.19;;;10.98;52.86
57376;BME280;44805;45.048;5.062;2023-04-26T00:38:03;99699.56;;;10.67;53.71
57376;BME280;44805;45.048;5.062;2023-04-26T00:40:29;99707.28;;;10.50;54.84
57376;BME280;44805;45.048;5.062;2023-04-26T00:42:57;99701.53;;;10.64;55.11
57376;BME280;44805;45.048;5.062;2023-04-26T00:45:23;99701.22;;;10.68;54.05
57376;BME280;44805;45.048;5.062;2023-04-26T00:47:48;99701.06;;;10.87;54.29
57376;BME280;44805;45.048;5.062;2023-04-26T00:50:14;99700.91;;;10.89;54.74
57376;BME280;44805;45.048;5.062;2023-04-26T00:52:39;99700.63;;;10.74;53.96
57376;BME280;44805;45.048;5.062;2023-04-26T00:55:04;99694.00;;;10.70;54.01
57376;BME280;44805;45.048;5.062;2023-04-26T00:57:31;99688.66;;;10.79;54.11
57376;BME280;44805;45.048;5.062;2023-04-26T00:59:56;99694.31;;;10.84;54.19
57376;BME280;44805;45.048;5.062;2023-04-26T01:02:21;99700.03;;;10.80;54.41
57376;BME280;44805;45.048;5.062;2023-04-26T01:04:47;99703.34;;;10.82;55.68
57376;BME280;44805;45.048;5.062;2023-04-26T01:07:12;99705.53;;;10.86;55.59
57376;BME280;44805;45.048;5.062;2023-04-26T01:09:38;99703.66;;;10.79;56.07
57376;BME280;44805;45.048;5.062;2023-04-26T01:15:25;99699.69;;;10.19;57.72
57376;BME280;44805;45.048;5.062;2023-04-26T01:17:51;99704.66;;;10.22;58.90
57376;BME280;44805;45.048;5.062;2023-04-26T01:20:17;99710.34;;;10.28;58.32
57376;BME280;44805;45.048;5.062;2023-04-26T01:22:42;99706.19;;;9.97;60.51
57376;BME280;44805;45.048;5.062;2023-04-26T01:25:07;99704.59;;;10.05;60.15
57376;BME280;44805;45.048;5.062;2023-04-26T01:30:38;99696.91;;;9.93;60.94
57376;BME280;44805;45.048;5.062;2023-04-26T01:33:04;99691.47;;;9.77;62.55
57376;BME280;44805;45.048;5.062;2023-04-26T01:35:29;99702.13;;;9.75;62.38
57376;BME280;44805;45.048;5.062;2023-04-26T01:37:55;99694.69;;;9.61;62.38
57376;BME280;44805;45.048;5.062;2023-04-26T01:40:20;99689.50;;;9.42;63.25
57376;BME280;44805;45.048;5.062;2023-04-26T01:42:46;99697.50;;;9.50;63.14
57376;BME280;44805;45.048;5.062;2023-04-26T01:45:11;99692.38;;;9.39;63.65
57376;BME280;44805;45.048;5.062;2023-04-26T01:47:36;99692.97;;;9.32;64.24
57376;BME280;44805;45.048;5.062;2023-04-26T01:50:01;99696.44;;;9.23;63.96
57376;BME280;44805;45.048;5.062;2023-04-26T01:52:27;99697.41;;;9.12;65.24
57376;BME280;44805;45.048;5.062;2023-04-26T01:54:52;99693.97;;;9.12;65.81
57376;BME280;44805;45.048;5.062;2023-04-26T02:00:30;99698.75;;;9.36;64.25
57376;BME280;44805;45.048;5.062;2023-04-26T02:02:55;99685.09;;;9.32;66.00
57376;BME280;44805;45.048;5.062;2023-04-26T02:05:21;99688.53;;;9.33;65.74
57376;BME280;44805;45.048;5.062;2023-04-26T02:07:46;99688.50;;;9.43;64.61
57376;BME280;44805;45.048;5.062;2023-04-26T02:10:12;99689.22;;;9.45;64.99
57376;BME280;44805;45.048;5.062;2023-04-26T02:12:37;99704.28;;;9.33;65.50
57376;BME280;44805;45.048;5.062;2023-04-26T02:15:02;99697.69;;;9.29;67.04
57376;BME280;44805;45.048;5.062;2023-04-26T02:17:28;99689.50;;;9.32;65.68
57376;BME280;44805;45.048;5.062;2023-04-26T02:19:54;99699.03;;;9.33;67.05
57376;BME280;44805;45.048;5.062;2023-04-26T02:22:20;99689.41;;;9.24;66.50
57376;BME280;44805;45.048;5.062;2023-04-26T02:24:48;99687.19;;;9.19;67.08
57376;BME280;44805;45.048;5.062;2023-04-26T02:27:13;99684.16;;;9.14;67.35
57376;BME280;44805;45.048;5.062;2023-04-26T02:29:39;99672.25;;;9.20;67.35
57376;BME280;44805;45.048;5.062;2023-04-26T02:32:04;99674.19;;;9.18;67.22
57376;BME280;44805;45.048;5.062;2023-04-26T02:34:29;99671.44;;;9.19;68.11
57376;BME280;44805;45.048;5.062;2023-04-26T02:36:55;99676.41;;;9.03;68.76
57376;BME280;44805;45.048;5.062;2023-04-26T02:39:20;99675.47;;;8.84;69.56
57376;BME280;44805;45.048;5.062;2023-04-26T02:41:45;99662.88;;;8.98;69.33
57376;BME280;44805;45.048;5.062;2023-04-26T02:44:10;99657.63;;;9.07;67.52
57376;BME280;44805;45.048;5.062;2023-04-26T02:46:36;99655.69;;;9.00;68.48
57376;BME280;44805;45.048;5.062;2023-04-26T02:49:01;99659.88;;;8.73;69.82
57376;BME280;44805;45.048;5.062;2023-04-26T02:51:27;99653.78;;;8.63;70.19
57376;BME280;44805;45.048;5.062;2023-04-26T02:53:52;99665.38;;;8.80;69.22
57376;BME280;44805;45.048;5.062;2023-04-26T02:56:17;99663.72;;;8.69;69.85
57376;BME280;44805;45.048;5.062;2023-04-26T02:58:43;99664.28;;;8.53;71.96
57376;BME280;44805;45.048;5.062;2023-04-26T03:01:08;99675.03;;;8.40;70.98
57376;BME280;44805;45.048;5.062;2023-04-26T03:03:34;99669.44;;;8.24;72.97
57376;BME280;44805;45.048;5.062;2023-04-26T03:06:01;99676.88;;;8.19;73.74
57376;BME280;44805;45.048;5.062;2023-04-26T03:08:26;99669.47;;;8.34;71.73
57376;BME280;44805;45.048;5.062;2023-04-26T03:10:51;99679.03;;;8.54;71.72
57376;BME280;44805;45.048;5.062;2023-04-26T03:13:16;99673.09;;;8.62;71.34
57376;BME280;44805;45.048;5.062;2023-04-26T03:15:45;99674.78;;;8.63;71.56
57376;BME280;44805;45.048;5.062;2023-04-26T03:18:10;99679.06;;;8.64;70.76
57376;BME280;44805;45.048;5.062;2023-04-26T03:20:36;99681.41;;;8.67;71.10
57376;BME280;44805;45.048;5.062;2023-04-26T03:23:01;99680.88;;;8.73;71.03
57376;BME280;44805;45.048;5.062;2023-04-26T03:25:26;99680.16;;;8.71;70.80
57376;BME280;44805;45.048;5.062;2023-04-26T03:27:51;99676.44;;;8.83;70.64
57376;BME280;44805;45.048;5.062;2023-04-26T03:30:17;99680.59;;;8.86;69.80
57376;BME280;44805;45.048;5.062;2023-04-26T03:32:42;99680.59;;;8.86;71.54
57376;BME280;44805;45.048;5.062;2023-04-26T03:35:08;99678.25;;;8.83;69.97
57376;BME280;44805;45.048;5.062;2023-04-26T03:37:34;99681.41;;;8.77;72.02
57376;BME280;44805;45.048;5.062;2023-04-26T03:39:59;99681.81;;;8.82;71.82
57376;BME280;44805;45.048;5.062;2023-04-26T03:42:25;99676.72;;;8.80;70.86
57376;BME280;44805;45.048;5.062;2023-04-26T03:44:50;99661.81;;;8.81;71.38
57376;BME280;44805;45.048;5.062;2023-04-26T03:47:15;99674.09;;;8.80;71.84
57376;BME280;44805;45.048;5.062;2023-04-26T03:49:40;99674.50;;;8.85;70.98
57376;BME280;44805;45.048;5.062;2023-04-26T03:52:06;99668.44;;;8.75;71.24
57376;BME280;44805;45.048;5.062;2023-04-26T03:54:32;99678.06;;;8.65;71.29
57376;BME280;44805;45.048;5.062;2023-04-26T03:56:58;99678.63;;;8.59;71.56
57376;BME280;44805;45.048;5.062;2023-04-26T03:59:23;99683.06;;;8.68;72.04
57376;BME280;44805;45.048;5.062;2023-04-26T04:01:48;99681.41;;;8.67;71.72
57376;BME280;44805;45.048;5.062;2023-04-26T04:04:14;99688.44;;;8.57;71.62
57376;BME280;44805;45.048;5.062;2023-04-26T04:06:39;99697.44;;;8.64;70.93
57376;BME280;44805;45.048;5.062;2023-04-26T04:09:04;99692.31;;;8.53;73.03
57376;BME280;44805;45.048;5.062;2023-04-26T04:11:48;99692.31;;;8.53;72.57
57376;BME280;44805;45.048;5.062;2023-04-26T04:14:13;99696.03;;;8.50;74.48
57376;BME280;44805;45.048;5.062;2023-04-26T04:16:39;99691.47;;;8.62;72.95
57376;BME280;44805;45.048;5.062;2023-04-26T04:19:04;99705.16;;;8.56;72.11
57376;BME280;44805;45.048;5.062;2023-04-26T04:21:29;99701.28;;;8.50;71.04
57376;BME280;44805;45.048;5.062;2023-04-26T04:23:56;99699.78;;;8.47;72.79
57376;BME280;44805;45.048;5.062;2023-04-26T04:26:21;99708.03;;;8.43;72.28
57376;BME280;44805;45.048;5.062;2023-04-26T04:28:46;99696.56;;;8.44;72.85
57376;BME280;44805;45.048;5.062;2023-04-26T04:31:12;99704.50;;;8.23;73.68
57376;BME280;44805;45.048;5.062;2023-04-26T04:33:38;99710.19;;;8.28;72.94
57376;BME280;44805;45.048;5.062;2023-04-26T04:36:03;99714.41;;;8.10;73.37
57376;BME280;44805;45.048;5.062;2023-04-26T04:38:29;99704.88;;;8.09;74.58
57376;BME280;44805;45.048;5.062;2023-04-26T04:40:55;99699.81;;;8.17;74.88
57376;BME280;44805;45.048;5.062;2023-04-26T04:46:17;99706.13;;;8.04;74.86
57376;BME280;44805;45.048;5.062;2023-04-26T04:48:42;99709.44;;;8.07;74.30
57376;BME280;44805;45.048;5.062;2023-04-26T04:51:08;99712.75;;;8.09;73.91
57376;BME280;44805;45.048;5.062;2023-04-26T04:53:33;99707.09;;;7.73;76.31
57376;BME280;44805;45.048;5.062;2023-04-26T04:55:59;99709.63;;;7.84;75.38
57376;BME280;44805;45.048;5.062;2023-04-26T05:01:27;99714.44;;;7.79;79.17
57376;BME280;44805;45.048;5.062;2023-04-26T05:03:53;99718.97;;;7.77;76.41
57376;BME280;44805;45.048;5.062;2023-04-26T05:06:18;99719.69;;;7.79;76.63
57376;BME280;44805;45.048;5.062;2023-04-26T05:08:44;99723.06;;;8.00;75.44
57376;BME280;44805;45.048;5.062;2023-04-26T05:11:09;99721.19;;;8.12;75.35
57376;BME280;44805;45.048;5.062;2023-04-26T05:13:34;99731.97;;;8.19;76.15
57376;BME280;44805;45.048;5.062;2023-04-26T05:16:00;99735.75;;;7.95;76.48
57376;BME280;44805;45.048;5.062;2023-04-26T05:18:28;99733.22;;;7.84;76.26
57376;BME280;44805;45.048;5.062;2023-04-26T05:20:53;99737.38;;;7.87;77.10
57376;BME280;44805;45.048;5.062;2023-04-26T05:23:19;99744.75;;;8.02;75.91
57376;BME280;44805;45.048;5.062;2023-04-26T05:25:44;99741.69;;;7.97;76.48
57376;BME280;44805;45.048;5.062;2023-04-26T05:28:09;99732.38;;;8.24;74.48
57376;BME280;44805;45.048;5.062;2023-04-26T05:30:44;99734.34;;;8.32;75.16
57376;BME280;44805;45.048;5.062;2023-04-26T05:33:10;99726.69;;;8.50;74.36
57376;BME280;44805;45.048;5.062;2023-04-26T05:35:35;99736.31;;;8.39;74.76
57376;BME280;44805;45.048;5.062;2023-04-26T05:38:00;99744.84;;;8.22;73.91
57376;BME280;44805;45.048;5.062;2023-04-26T05:40:26;99743.94;;;8.42;73.30
57376;BME280;44805;45.048;5.062;2023-04-26T05:45:55;99756.13;;;8.73;72.56
57376;BME280;44805;45.048;5.062;2023-04-26T05:48:21;99752.44;;;8.75;72.25
57376;BME280;44805;45.048;5.062;2023-04-26T05:50:46;99753.81;;;8.79;71.10
57376;BME280;44805;45.048;5.062;2023-04-26T05:53:12;99755.34;;;8.91;72.21
57376;BME280;44805;45.048;5.062;2023-04-26T05:55:37;99749.94;;;9.03;71.73
57376;BME280;44805;45.048;5.062;2023-04-26T06:00:59;99746.09;;;9.17;70.99
57376;BME280;44805;45.048;5.062;2023-04-26T06:03:24;99748.16;;;9.13;70.32
57376;BME280;44805;45.048;5.062;2023-04-26T06:05:50;99757.53;;;9.45;70.16
57376;BME280;44805;45.048;5.062;2023-04-26T06:08:15;99749.34;;;9.57;69.32
57376;BME280;44805;45.048;5.062;2023-04-26T06:10:40;99765.66;;;9.61;69.40
57376;BME280;44805;45.048;5.062;2023-04-26T06:13:06;99764.78;;;9.80;68.80
57376;BME280;44805;45.048;5.062;2023-04-26T06:15:31;99766.19;;;9.74;69.83
57376;BME280;44805;45.048;5.062;2023-04-26T06:17:56;99765.81;;;9.97;69.32
57376;BME280;44805;45.048;5.062;2023-04-26T06:20:22;99763.72;;;10.10;67.21
57376;BME280;44805;45.048;5.062;2023-04-26T06:22:47;99765.47;;;10.19;67.80
57376;BME280;44805;45.048;5.062;2023-04-26T06:25:12;99766.75;;;10.15;67.54
57376;BME280;44805;45.048;5.062;2023-04-26T06:27:38;99765.84;;;10.25;67.67
57376;BME280;44805;45.048;5.062;2023-04-26T06:30:04;99757.94;;;10.34;67.20
57376;BME280;44805;45.048;5.062;2023-04-26T06:32:30;99756.47;;;10.50;66.91
57376;BME280;44805;45.048;5.062;2023-04-26T06:34:56;99765.09;;;10.70;66.56
57376;BME280;44805;45.048;5.062;2023-04-26T06:37:21;99756.47;;;10.95;66.31
57376;BME280;44805;45.048;5.062;2023-04-26T06:39:46;99753.91;;;11.03;65.57
57376;BME280;44805;45.048;5.062;2023-04-26T06:42:11;99759.97;;;11.22;65.93
57376;BME280;44805;45.048;5.062;2023-04-26T06:44:37;99768.44;;;10.90;65.91
57376;BME280;44805;45.048;5.062;2023-04-26T06:47:02;99709.78;;;11.05;65.21
57376;BME280;44805;45.048;5.062;2023-04-26T06:49:27;99761.16;;;11.45;64.21
57376;BME280;44805;45.048;5.062;2023-04-26T06:51:52;99762.13;;;11.44;64.15
57376;BME280;44805;45.048;5.062;2023-04-26T06:54:18;99763.19;;;11.51;63.19
57376;BME280;44805;45.048;5.062;2023-04-26T06:56:44;99773.41;;;11.55;63.42
57376;BME280;44805;45.048;5.062;2023-04-26T07:02:12;99763.81;;;11.45;64.04
57376;BME280;44805;45.048;5.062;2023-04-26T07:04:37;99768.84;;;11.39;64.13
57376;BME280;44805;45.048;5.062;2023-04-26T07:07:02;99757.84;;;11.43;63.48
57376;BME280;44805;45.048;5.062;2023-04-26T07:09:28;99767.94;;;11.48;63.69
57376;BME280;44805;45.048;5.062;2023-04-26T07:11:53;99764.13;;;11.42;63.08
57376;BME280;44805;45.048;5.062;2023-04-26T07:17:09;99755.94;;;11.54;62.51
57376;BME280;44805;45.048;5.062;2023-04-26T07:19:34;99748.63;;;11.65;63.82
57376;BME280;44805;45.048;5.062;2023-04-26T07:21:59;99753.84;;;11.83;63.86
57376;BME280;44805;45.048;5.062;2023-04-26T07:24:25;99761.16;;;11.89;64.43
57376;BME280;44805;45.048;5.062;2023-04-26T07:26:50;99760.50;;;11.95;63.20
57376;BME280;44805;45.048;5.062;2023-04-26T07:29:16;99750.28;;;11.92;62.23
57376;BME280;44805;45.048;5.062;2023-04-26T07:31:44;99757.75;;;12.05;62.77
57376;BME280;44805;45.048;5.062;2023-04-26T07:34:09;99753.66;;;12.11;60.88
57376;BME280;44805;45.048;5.062;2023-04-26T07:36:35;99751.91;;;12.20;62.77
57376;BME280;44805;45.048;5.062;2023-04-26T07:39:00;99747.31;;;12.30;62.87
57376;BME280;44805;45.048;5.062;2023-04-26T07:41:25;99744.22;;;12.43;60.61
57376;BME280;44805;45.048;5.062;2023-04-26T07:43:51;99747.22;;;12.48;61.94
57376;BME280;44805;45.048;5.062;2023-04-26T07:46:16;99736.31;;;12.51;60.64
57376;BME280;44805;45.048;5.062;2023-04-26T07:48:41;99744.59;;;12.64;60.18
57376;BME280;44805;45.048;5.062;2023-04-26T07:51:07;99747.16;;;12.31;58.85
57376;BME280;44805;45.048;5.062;2023-04-26T07:53:33;99749.84;;;12.48;58.77
57376;BME280;44805;45.048;5.062;2023-04-26T07:55:58;99743.63;;;12.57;58.68
57376;BME280;44805;45.048;5.062;2023-04-26T08:01:41;99750.88;;;12.55;56.53
57376;BME280;44805;45.048;5.062;2023-04-26T08:04:07;99741.00;;;12.81;56.31
57376;BME280;44805;45.048;5.062;2023-04-26T08:06:32;99746.63;;;12.78;56.79
57376;BME280;44805;45.048;5.062;2023-04-26T08:08:57;99742.03;;;12.97;55.02
57376;BME280;44805;45.048;5.062;2023-04-26T08:11:23;99745.00;;;12.94;56.74
57376;BME280;44805;45.048;5.062;2023-04-26T08:13:48;99744.50;;;13.07;56.82
57376;BME280;44805;45.048;5.062;2023-04-26T08:16:13;99739.75;;;13.10;56.53
57376;BME280;44805;45.048;5.062;2023-04-26T08:18:39;99746.16;;;13.24;55.57
57376;BME280;44805;45.048;5.062;2023-04-26T08:21:04;99737.94;;;13.35;55.95
57376;BME280;44805;45.048;5.062;2023-04-26T08:23:33;99743.72;;;13.47;55.51
57376;BME280;44805;45.048;5.062;2023-04-26T08:26:02;99741.88;;;13.48;55.79
57376;BME280;44805;45.048;5.062;2023-04-26T08:31:24;99746.81;;;13.75;55.77
57376;BME280;44805;45.048;5.062;2023-04-26T08:33:49;99741.28;;;13.93;57.36
57376;BME280;44805;45.048;5.062;2023-04-26T08:36:14;99737.75;;;14.17;56.75
57376;BME280;44805;45.048;5.062;2023-04-26T08:38:40;99737.44;;;14.04;55.84
57376;BME280;44805;45.048;5.062;2023-04-26T08:41:06;99741.38;;;14.16;55.20
57376;BME280;44805;45.048;5.062;2023-04-26T08:43:36;99742.25;;;14.40;56.66
57376;BME280;44805;45.048;5.062;2023-04-26T08:46:02;99743.72;;;14.50;53.89
57376;BME280;44805;45.048;5.062;2023-04-26T08:48:30;99742.00;;;14.66;53.53
57376;BME280;44805;45.048;5.062;2023-04-26T08:50:58;99740.13;;;14.74;52.99
57376;BME280;44805;45.048;5.062;2023-04-26T08:53:25;99750.16;;;14.87;52.74
57376;BME280;44805;45.048;5.062;2023-04-26T08:55:51;99748.97;;;15.13;51.16
57376;BME280;44805;45.048;5.062;2023-04-26T08:58:32;99745.56;;;15.27;51.67
57376;BME280;44805;45.048;5.062;2023-04-26T09:00:57;99744.13;;;15.39;50.62
57376;BME280;44805;45.048;5.062;2023-04-26T09:03:24;99749.44;;;15.54;51.23
57376;BME280;44805;45.048;5.062;2023-04-26T09:05:50;99743.22;;;15.62;50.71
57376;BME280;44805;45.048;5.062;2023-04-26T09:08:16;99750.31;;;15.84;51.44
57376;BME280;44805;45.048;5.062;2023-04-26T09:10:42;99747.59;;;16.08;49.27
57376;BME280;44805;45.048;5.062;2023-04-26T09:13:07;99742.91;;;16.24;50.08
57376;BME280;44805;45.048;5.062;2023-04-26T09:15:33;99737.31;;;16.34;49.03
57376;BME280;44805;45.048;5.062;2023-04-26T09:20:42;99739.97;;;16.19;47.72
57376;BME280;44805;45.048;5.062;2023-04-26T09:23:08;99746.38;;;16.40;48.57
57376;BME280;44805;45.048;5.062;2023-04-26T09:25:34;99742.13;;;16.45;46.93
57376;BME280;44805;45.048;5.062;2023-04-26T09:27:59;99737.06;;;16.65;47.81
57376;BME280;44805;45.048;5.062;2023-04-26T09:30:25;99738.66;;;16.81;47.58
57376;BME280;44805;45.048;5.062;2023-04-26T09:32:58;99732.78;;;16.86;47.43
57376;BME280;44805;45.048;5.062;2023-04-26T09:35:24;99722.78;;;16.88;47.63
57376;BME280;44805;45.048;5.062;2023-04-26T09:43:09;99706.59;;;17.32;46.18
57376;BME280;44805;45.048;5.062;2023-04-26T09:45:42;99713.44;;;17.42;45.80
57376;BME280;44805;45.048;5.062;2023-04-26T09:48:18;99706.97;;;17.57;46.31
57376;BME280;44805;45.048;5.062;2023-04-26T09:50:45;99703.00;;;17.75;43.90
57376;BME280;44805;45.048;5.062;2023-04-26T09:53:11;99705.88;;;17.73;44.67
57376;BME280;44805;45.048;5.062;2023-04-26T09:55:36;99715.19;;;17.56;43.75
57376;BME280;44805;45.048;5.062;2023-04-26T10:01:06;99711.00;;;17.47;44.36
57376;BME280;44805;45.048;5.062;2023-04-26T10:03:32;99707.66;;;17.66;43.33
57376;BME280;44805;45.048;5.062;2023-04-26T10:05:58;99703.09;;;17.88;43.88
57376;BME280;44805;45.048;5.062;2023-04-26T10:08:23;99698.63;;;17.95;43.91
57376;BME280;44805;45.048;5.062;2023-04-26T10:10:48;99693.97;;;18.11;42.93
57376;BME280;44805;45.048;5.062;2023-04-26T10:13:15;99683.91;;;18.06;43.51
57376;BME280;44805;45.048;5.062;2023-04-26T10:15:41;99691.59;;;18.29;43.28
57376;BME280;44805;45.048;5.062;2023-04-26T10:18:07;99685.22;;;18.17;42.19
57376;BME280;44805;45.048;5.062;2023-04-26T10:20:32;99684.28;;;18.51;43.05
57376;BME280;44805;45.048;5.062;2023-04-26T10:22:59;99671.59;;;18.60;42.04
57376;BME280;44805;45.048;5.062;2023-04-26T10:25:35;99671.25;;;18.90;41.35
57376;BME280;44805;45.048;5.062;2023-04-26T10:28:01;99672.06;;;18.83;41.52
57376;BME280;44805;45.048;5.062;2023-04-26T10:30:27;99671.66;;;19.00;40.46
57376;BME280;44805;45.048;5.062;2023-04-26T10:35:21;99674.31;;;18.86;40.77
57376;BME280;44805;45.048;5.062;2023-04-26T10:40:25;99669.81;;;19.34;39.68
57376;BME280;44805;45.048;5.062;2023-04-26T10:43:23;99661.78;;;19.20;39.11
57376;BME280;44805;45.048;5.062;2023-04-26T10:45:40;99657.50;;;19.06;40.62
57376;BME280;44805;45.048;5.062;2023-04-26T10:58:41;99646.00;;;18.92;39.22
57376;BME280;44805;45.048;5.062;2023-04-26T11:03:39;99637.13;;;19.38;39.33
57376;BME280;44805;45.048;5.062;2023-04-26T11:06:08;99629.50;;;19.55;38.51
57376;BME280;44805;45.048;5.062;2023-04-26T11:08:34;99620.66;;;19.75;38.25
57376;BME280;44805;45.048;5.062;2023-04-26T11:16:19;99609.13;;;19.74;38.51
57376;BME280;44805;45.048;5.062;2023-04-26T11:18:45;99609.03;;;20.01;37.21
57376;BME280;44805;45.048;5.062;2023-04-26T11:21:11;99614.19;;;19.89;37.33
57376;BME280;44805;45.048;5.062;2023-04-26T11:23:37;99600.72;;;20.15;37.18
57376;BME280;44805;45.048;5.062;2023-04-26T11:26:03;99599.84;;;20.22;37.08
57376;BME280;44805;45.048;5.062;2023-04-26T11:28:29;99601.09;;;19.74;36.93
57376;BME280;44805;45.048;5.062;2023-04-26T11:30:55;99598.06;;;20.09;38.33
57376;BME280;44805;45.048;5.062;2023-04-26T11:33:21;99587.72;;;20.26;37.55
57376;BME280;44805;45.048;5.062;2023-04-26T11:35:52;99598.00;;;20.22;36.16
57376;BME280;44805;45.048;5.062;2023-04-26T11:38:21;99583.91;;;20.40;35.12
57376;BME280;44805;45.048;5.062;2023-04-26T11:40:56;99574.69;;;20.36;37.03
57376;BME280;44805;45.048;5.062;2023-04-26T11:49:13;99585.16;;;20.37;36.25
57376;BME280;44805;45.048;5.062;2023-04-26T11:51:39;99586.31;;;20.16;36.57
57376;BME280;44805;45.048;5.062;2023-04-26T11:54:04;99592.09;;;20.45;36.12
57376;BME280;44805;45.048;5.062;2023-04-26T11:56:29;99578.44;;;20.85;34.83
57376;BME280;44805;45.048;5.062;2023-04-26T11:58:55;99575.88;;;20.72;34.57
57376;BME280;44805;45.048;5.062;2023-04-26T12:01:23;99561.31;;;20.86;35.13
57376;BME280;44805;45.048;5.062;2023-04-26T12:03:52;99561.44;;;20.73;36.36
57376;BME280;44805;45.048;5.062;2023-04-26T12:06:19;99563.44;;;20.84;35.06
57376;BME280;44805;45.048;5.062;2023-04-26T12:08:48;99563.94;;;20.74;35.35
57376;BME280;44805;45.048;5.062;2023-04-26T12:11:15;99566.69;;;20.86;34.57
57376;BME280;44805;45.048;5.062;2023-04-26T12:13:40;99556.91;;;20.73;34.80
57376;BME280;44805;45.048;5.062;2023-04-26T12:16:09;99557.59;;;20.69;33.54
57376;BME280;44805;45.048;5.062;2023-04-26T12:18:36;99545.19;;;20.74;34.38
57376;BME280;44805;45.048;5.062;2023-04-26T12:21:01;99549.47;;;21.00;33.86
57376;BME280;44805;45.048;5.062;2023-04-26T12:23:34;99548.31;;;21.15;33.48
57376;BME280;44805;45.048;5.062;2023-04-26T12:26:00;99547.84;;;21.18;34.09
57376;BME280;44805;45.048;5.062;2023-04-26T12:28:27;99537.44;;;21.28;33.32
57376;BME280;44805;45.048;5.062;2023-04-26T12:30:53;99548.31;;;21.52;34.95
57376;BME280;44805;45.048;5.062;2023-04-26T12:33:18;99539.63;;;21.56;32.41
57376;BME280;44805;45.048;5.062;2023-04-26T12:35:47;99535.44;;;21.60;33.43
57376;BME280;44805;45.048;5.062;2023-04-26T12:38:12;99537.44;;;21.65;33.52
57376;BME280;44805;45.048;5.062;2023-04-26T12:40:37;99542.09;;;21.58;33.15
57376;BME280;44805;45.048;5.062;2023-04-26T12:43:03;99531.03;;;21.11;33.56
57376;BME280;44805;45.048;5.062;2023-04-26T12:45:28;99537.69;;;20.83;33.61
57376;BME280;44805;45.048;5.062;2023-04-26T12:47:53;99539.84;;;20.74;34.35
57376;BME280;44805;45.048;5.062;2023-04-26T12:50:19;99527.19;;;21.07;34.28
57376;BME280;44805;45.048;5.062;2023-04-26T12:52:45;99529.72;;;21.01;34.37
57376;BME280;44805;45.048;5.062;2023-04-26T12:55:11;99524.72;;;21.23;34.30
57376;BME280;44805;45.048;5.062;2023-04-26T12:57:37;99531.88;;;21.48;34.09
57376;BME280;44805;45.048;5.062;2023-04-26T13:03:06;99518.81;;;21.70;33.41
57376;BME280;44805;45.048;5.062;2023-04-26T13:05:31;99513.19;;;21.60;33.60
57376;BME280;44805;45.048;5.062;2023-04-26T13:07:57;99523.47;;;21.63;34.16
57376;BME280;44805;45.048;5.062;2023-04-26T13:10:24;99526.56;;;21.78;33.10
57376;BME280;44805;45.048;5.062;2023-04-26T13:12:49;99520.09;;;21.67;33.84
57376;BME280;44805;45.048;5.062;2023-04-26T13:18:08;99535.34;;;21.85;33.73
57376;BME280;44805;45.048;5.062;2023-04-26T13:20:33;99538.00;;;21.85;33.88
57376;BME280;44805;45.048;5.062;2023-04-26T13:22:59;99541.13;;;21.82;33.59
57376;BME280;44805;45.048;5.062;2023-04-26T13:25:24;99537.09;;;21.92;33.55
57376;BME280;44805;45.048;5.062;2023-04-26T13:27:49;99534.00;;;21.76;33.32
57376;BME280;44805;45.048;5.062;2023-04-26T13:33:20;99528.00;;;21.93;33.74
57376;BME280;44805;45.048;5.062;2023-04-26T13:35:45;99520.69;;;22.00;33.66
57376;BME280;44805;45.048;5.062;2023-04-26T13:38:10;99516.53;;;22.16;33.77
57376;BME280;44805;45.048;5.062;2023-04-26T13:40:36;99509.75;;;22.13;33.67
57376;BME280;44805;45.048;5.062;2023-04-26T13:43:02;99506.19;;;22.19;34.36
57376;BME280;44805;45.048;5.062;2023-04-26T13:45:27;99509.69;;;22.20;33.46
57376;BME280;44805;45.048;5.062;2023-04-26T13:47:52;99502.31;;;22.15;34.11
57376;BME280;44805;45.048;5.062;2023-04-26T13:50:18;99507.66;;;22.15;33.62
57376;BME280;44805;45.048;5.062;2023-04-26T13:52:43;99497.88;;;22.09;33.56
57376;BME280;44805;45.048;5.062;2023-04-26T13:55:08;99497.53;;;22.17;33.42
57376;BME280;44805;45.048;5.062;2023-04-26T13:57:34;99493.75;;;22.48;33.03
57376;BME280;44805;45.048;5.062;2023-04-26T14:03:03;99506.25;;;22.90;32.61
57376;BME280;44805;45.048;5.062;2023-04-26T14:05:28;99495.50;;;22.90;32.99
57376;BME280;44805;45.048;5.062;2023-04-26T14:07:53;99500.75;;;23.08;32.15
57376;BME280;44805;45.048;5.062;2023-04-26T14:10:19;99497.78;;;23.33;32.21
57376;BME280;44805;45.048;5.062;2023-04-26T14:12:44;99496.63;;;23.29;32.48
57376;BME280;44805;45.048;5.062;2023-04-26T14:15:09;99494.59;;;23.08;31.59
57376;BME280;44805;45.048;5.062;2023-04-26T14:17:35;99488.13;;;23.21;31.41
57376;BME280;44805;45.048;5.062;2023-04-26T14:20:00;99485.75;;;23.36;31.99
57376;BME280;44805;45.048;5.062;2023-04-26T14:22:25;99490.38;;;23.40;32.35
57376;BME280;44805;45.048;5.062;2023-04-26T14:24:51;99485.09;;;23.57;31.83